createdAt,value
2018-09-14T00:01:44.207Z,101666.00
2018-09-14T00:04:12.362Z,101666.79
2018-09-14T00:06:40.455Z,101669.91
2018-09-14T00:09:10.612Z,101666.84
2018-09-14T00:11:38.742Z,101664.69
2018-09-14T00:14:06.855Z,101667.02
2018-09-14T00:16:35.042Z,101666.97
2018-09-14T00:19:03.121Z,101667.02
2018-09-14T00:21:31.261Z,101666.34
2018-09-14T00:23:59.408Z,101663.09
2018-09-14T00:26:27.537Z,101666.32
2018-09-14T00:28:55.708Z,101668.28
2018-09-14T00:31:23.841Z,101656.97
2018-09-14T00:33:52.004Z,101652.71
2018-09-14T00:36:20.128Z,101657.98
2018-09-14T00:38:48.273Z,101653.67
2018-09-14T00:41:16.465Z,101656.39
2018-09-14T00:43:45.793Z,101651.48
2018-09-14T00:46:13.943Z,101651.18
2018-09-14T00:48:42.126Z,101652.88
2018-09-14T00:51:10.268Z,101647.27
2018-09-14T00:53:38.385Z,101644.46
2018-09-14T00:56:06.529Z,101650.59
2018-09-14T00:58:34.687Z,101654.75
2018-09-14T01:01:02.829Z,101651.63
2018-09-14T01:03:30.969Z,101653.79
2018-09-14T01:05:59.096Z,101655.15
2018-09-14T01:08:27.264Z,101649.92
2018-09-14T01:10:55.408Z,101649.28
2018-09-14T01:13:23.557Z,101653.48
2018-09-14T01:15:51.680Z,101645.20
2018-09-14T01:18:19.820Z,101653.03
2018-09-14T01:20:47.937Z,101649.68
2018-09-14T01:23:16.069Z,101648.56
2018-09-14T01:25:44.191Z,101645.66
2018-09-14T01:28:12.326Z,101646.91
2018-09-14T01:30:40.432Z,101643.05
2018-09-14T01:33:08.571Z,101638.58
2018-09-14T01:35:42.034Z,101644.70
2018-09-14T01:38:10.174Z,101645.16
2018-09-14T01:40:38.314Z,101638.14
2018-09-14T01:43:06.437Z,101631.11
2018-09-14T01:45:34.569Z,101635.08
2018-09-14T01:48:02.712Z,101632.52
2018-09-14T01:50:31.768Z,101631.96
2018-09-14T01:52:59.916Z,101630.34
2018-09-14T01:55:28.113Z,101630.59
2018-09-14T01:57:56.296Z,101624.02
2018-09-14T02:00:24.421Z,101619.81
2018-09-14T02:02:52.601Z,101620.42
2018-09-14T02:05:20.725Z,101619.97
2018-09-14T02:07:48.885Z,101614.44
2018-09-14T02:10:21.960Z,101618.06
2018-09-14T02:12:50.228Z,101609.48
2018-09-14T02:15:18.613Z,101609.58
2018-09-14T02:17:46.972Z,101610.44
2018-09-14T02:20:16.021Z,101606.73
2018-09-14T02:22:44.141Z,101605.27
2018-09-14T02:25:12.471Z,101608.17
2018-09-14T02:27:41.319Z,101604.71
2018-09-14T02:30:09.457Z,101603.45
2018-09-14T02:32:38.033Z,101603.41
2018-09-14T02:35:06.188Z,101596.83
2018-09-14T02:37:34.328Z,101593.06
2018-09-14T02:40:02.701Z,101590.31
2018-09-14T02:42:31.168Z,101597.28
2018-09-14T02:44:59.276Z,101583.38
2018-09-14T02:47:27.441Z,101587.00
2018-09-14T02:49:55.545Z,101592.62
2018-09-14T02:52:23.774Z,101586.34
2018-09-14T02:54:51.913Z,101589.25
2018-09-14T02:57:20.081Z,101582.99
2018-09-14T02:59:48.249Z,101580.57
2018-09-14T03:02:16.368Z,101582.27
2018-09-14T03:04:44.504Z,101582.37
2018-09-14T03:07:12.621Z,101581.47
2018-09-14T03:09:40.766Z,101582.94
2018-09-14T03:12:08.880Z,101586.80
2018-09-14T03:14:37.034Z,101582.53
2018-09-14T03:17:05.173Z,101578.75
2018-09-14T03:19:33.321Z,101582.11
2018-09-14T03:22:01.432Z,101587.88
2018-09-14T03:24:29.589Z,101584.22
2018-09-14T03:26:57.758Z,101586.18
2018-09-14T03:29:25.915Z,101580.97
2018-09-14T03:31:54.007Z,101583.63
2018-09-14T03:34:22.168Z,101589.69
2018-09-14T03:36:50.290Z,101589.64
2018-09-14T03:39:18.480Z,101591.06
2018-09-14T03:41:47.301Z,101586.70
2018-09-14T03:44:15.409Z,101590.39
2018-09-14T03:46:43.556Z,101591.40
2018-09-14T03:49:11.673Z,101594.50
2018-09-14T03:51:39.853Z,101595.20
2018-09-14T03:54:08.171Z,101594.80
2018-09-14T03:56:36.319Z,101596.95
2018-09-14T03:59:04.469Z,101593.66
2018-09-14T04:01:32.640Z,101577.91
2018-09-14T04:04:00.859Z,101588.89
2018-09-14T04:06:29.000Z,101598.02
2018-09-14T04:08:57.175Z,101593.45
2018-09-14T04:11:25.341Z,101599.13
2018-09-14T04:13:53.491Z,101587.09
2018-09-14T04:16:21.649Z,101591.09
2018-09-14T04:18:54.150Z,101592.63
2018-09-14T04:21:22.278Z,101597.67
2018-09-14T04:23:50.417Z,101595.81
2018-09-14T04:26:18.549Z,101594.42
2018-09-14T04:28:46.692Z,101588.35
2018-09-14T04:31:14.849Z,101596.05
2018-09-14T04:33:43.788Z,101593.30
2018-09-14T04:36:12.038Z,101591.28
2018-09-14T04:38:40.293Z,101592.67
2018-09-14T04:41:08.382Z,101598.22
2018-09-14T04:43:36.529Z,101599.43
2018-09-14T04:46:04.667Z,101598.38
2018-09-14T04:48:32.874Z,101607.16
2018-09-14T04:51:00.960Z,101597.94
2018-09-14T04:53:29.568Z,101600.50
2018-09-14T04:55:57.693Z,101599.95
2018-09-14T04:58:25.840Z,101601.70
2018-09-14T05:00:53.993Z,101598.60
2018-09-14T05:03:22.222Z,101606.20
2018-09-14T05:05:50.336Z,101606.11
2018-09-14T05:08:18.608Z,101604.39
2018-09-14T05:10:46.757Z,101603.40
2018-09-14T05:13:14.959Z,101604.11
2018-09-14T05:15:43.145Z,101601.83
2018-09-14T05:18:11.278Z,101609.00
2018-09-14T05:20:39.413Z,101615.38
2018-09-14T05:23:07.566Z,101613.17
2018-09-14T05:25:35.735Z,101614.83
2018-09-14T05:28:03.872Z,101622.10
2018-09-14T05:30:32.011Z,101624.93
2018-09-14T05:33:00.141Z,101623.02
2018-09-14T05:35:28.280Z,101623.67
2018-09-14T05:37:56.453Z,101621.47
2018-09-14T05:40:24.584Z,101621.63
2018-09-14T05:42:52.716Z,101622.78
2018-09-14T05:45:20.877Z,101617.82
2018-09-14T05:47:49.040Z,101624.84
2018-09-14T05:50:17.167Z,101629.77
2018-09-14T05:52:45.284Z,101627.16
2018-09-14T05:55:13.461Z,101627.45
2018-09-14T05:57:41.620Z,101633.72
2018-09-14T06:00:09.764Z,101630.81
2018-09-14T06:02:37.903Z,101626.98
2018-09-14T06:05:06.578Z,101636.45
2018-09-14T06:07:34.733Z,101636.52
2018-09-14T06:10:02.892Z,101637.30
2018-09-14T06:12:31.029Z,101635.88
2018-09-14T06:14:59.196Z,101631.17
2018-09-14T06:17:27.329Z,101632.93
2018-09-14T06:19:55.502Z,101638.17
2018-09-14T06:22:23.677Z,101639.78
2018-09-14T06:24:51.872Z,101639.09
2018-09-14T06:27:19.998Z,101639.30
2018-09-14T06:29:48.168Z,101634.25
2018-09-14T06:32:16.317Z,101638.16
2018-09-14T06:34:44.471Z,101633.58
2018-09-14T06:37:12.652Z,101635.48
2018-09-14T06:39:40.817Z,101635.73
2018-09-14T06:42:08.920Z,101635.94
2018-09-14T06:44:37.089Z,101639.34
2018-09-14T06:47:05.334Z,101636.50
2018-09-14T06:49:33.500Z,101637.05
2018-09-14T06:52:01.667Z,101629.19
2018-09-14T06:54:29.793Z,101635.77
2018-09-14T06:56:57.933Z,101631.24
2018-09-14T06:59:26.128Z,101635.25
2018-09-14T07:01:54.268Z,101635.89
2018-09-14T07:04:22.392Z,101637.80
2018-09-14T07:06:50.526Z,101642.12
2018-09-14T07:09:18.680Z,101641.39
2018-09-14T07:11:46.817Z,101646.56
2018-09-14T07:14:14.955Z,101649.01
2018-09-14T07:16:43.096Z,101638.00
2018-09-14T07:19:11.296Z,101643.10
2018-09-14T07:21:39.443Z,101642.72
2018-09-14T07:24:07.544Z,101641.72
2018-09-14T07:26:35.713Z,101649.34
2018-09-14T07:29:03.939Z,101639.48
2018-09-14T07:31:32.103Z,101649.49
2018-09-14T07:34:00.190Z,101645.73
2018-09-14T07:36:29.185Z,101639.06
2018-09-14T07:38:57.319Z,101640.42
2018-09-14T07:41:25.487Z,101646.28
2018-09-14T07:43:53.608Z,101646.37
2018-09-14T07:46:22.812Z,101648.14
2018-09-14T07:48:50.985Z,101646.69
2018-09-14T07:51:19.157Z,101647.30
2018-09-14T07:53:47.315Z,101647.76
2018-09-14T07:56:15.457Z,101647.78
2018-09-14T07:58:43.591Z,101650.08
2018-09-14T08:01:11.724Z,101656.97
2018-09-14T08:03:40.725Z,101654.38
2018-09-14T08:06:08.959Z,101657.06
2018-09-14T08:08:37.039Z,101655.06
2018-09-14T08:11:05.159Z,101657.81
2018-09-14T08:13:33.329Z,101648.84
2018-09-14T08:16:01.533Z,101652.50
2018-09-14T08:18:29.663Z,101654.59
2018-09-14T08:20:57.876Z,101653.01
2018-09-14T08:23:26.027Z,101655.91
2018-09-14T08:25:54.107Z,101656.30
2018-09-14T08:28:22.241Z,101656.87
2018-09-14T08:30:50.389Z,101652.23
2018-09-14T08:33:18.554Z,101656.38
2018-09-14T08:35:46.685Z,101655.78
2018-09-14T08:38:14.830Z,101657.37
2018-09-14T08:40:42.978Z,101658.03
2018-09-14T08:43:11.118Z,101659.25
2018-09-14T08:45:39.288Z,101664.39
2018-09-14T08:48:07.420Z,101664.39
2018-09-14T08:50:35.585Z,101656.32
2018-09-14T08:53:03.737Z,101658.50
2018-09-14T08:55:31.890Z,101656.95
2018-09-14T08:58:00.155Z,101657.55
2018-09-14T09:00:28.293Z,101658.12
2018-09-14T09:02:56.473Z,101658.22
2018-09-14T09:05:25.330Z,101659.86
2018-09-14T09:07:53.497Z,101654.17
2018-09-14T09:10:21.676Z,101654.23
2018-09-14T09:12:49.921Z,101653.96
2018-09-14T09:15:18.157Z,101652.72
2018-09-14T09:17:46.351Z,101655.95
2018-09-14T09:20:14.445Z,101651.97
2018-09-14T09:22:42.597Z,101646.13
2018-09-14T09:25:10.755Z,101652.34
2018-09-14T09:27:38.926Z,101646.41
2018-09-14T09:30:07.054Z,101643.30
2018-09-14T09:32:35.187Z,101650.58
2018-09-14T09:35:03.308Z,101654.80
2018-09-14T09:37:31.441Z,101651.86
2018-09-14T09:39:59.583Z,101643.05
2018-09-14T09:42:27.712Z,101640.64
2018-09-14T09:44:55.860Z,101640.80
2018-09-14T09:47:24.001Z,101638.89
2018-09-14T09:49:52.148Z,101643.20
2018-09-14T09:52:20.298Z,101645.80
2018-09-14T09:54:48.464Z,101645.59
2018-09-14T09:57:16.618Z,101645.69
2018-09-14T09:59:44.765Z,101639.72
2018-09-14T10:02:18.177Z,101633.44
2018-09-14T10:04:51.708Z,101641.56
2018-09-14T10:07:19.900Z,101643.78
2018-09-14T10:09:48.029Z,101640.88
2018-09-14T10:12:16.195Z,101645.69
2018-09-14T10:14:44.339Z,101641.94
2018-09-14T10:17:12.510Z,101637.97
2018-09-14T10:19:40.694Z,101642.89
2018-09-14T10:22:08.855Z,101641.39
2018-09-14T10:24:37.094Z,101638.41
2018-09-14T10:27:05.349Z,101641.02
2018-09-14T10:29:33.620Z,101631.33
2018-09-14T10:32:01.795Z,101633.33
2018-09-14T10:34:29.966Z,101629.13
2018-09-14T10:36:58.117Z,101633.31
2018-09-14T10:39:26.335Z,101637.44
2018-09-14T10:41:54.500Z,101635.12
2018-09-14T10:44:22.628Z,101638.14
2018-09-14T10:46:50.806Z,101628.45
2018-09-14T10:49:18.960Z,101625.12
2018-09-14T10:51:47.097Z,101619.46
2018-09-14T10:54:15.263Z,101621.62
2018-09-14T10:56:43.390Z,101621.62
2018-09-14T10:59:11.516Z,101619.80
2018-09-14T11:01:39.677Z,101620.41
2018-09-14T11:04:07.801Z,101614.74
2018-09-14T11:06:35.942Z,101607.25
2018-09-14T11:09:05.959Z,101604.64
2018-09-14T11:11:34.069Z,101603.20
2018-09-14T11:14:02.215Z,101603.98
2018-09-14T11:16:30.354Z,101597.80
2018-09-14T11:18:58.567Z,101600.48
2018-09-14T11:21:26.667Z,101595.41
2018-09-14T11:23:54.825Z,101586.92
2018-09-14T11:26:22.976Z,101586.78
2018-09-14T11:28:51.076Z,101592.10
2018-09-14T11:31:24.253Z,101592.39
2018-09-14T11:33:52.528Z,101590.58
2018-09-14T11:36:20.661Z,101587.23
2018-09-14T11:38:48.814Z,101586.92
2018-09-14T11:41:16.940Z,101585.38
2018-09-14T11:43:45.074Z,101578.75
2018-09-14T11:46:13.237Z,101583.88
2018-09-14T11:48:41.395Z,101574.49
2018-09-14T11:51:09.556Z,101580.02
2018-09-14T11:53:38.018Z,101574.92
2018-09-14T11:56:06.189Z,101573.39
2018-09-14T11:58:34.325Z,101565.98
2018-09-14T12:01:02.472Z,101571.17
2018-09-14T12:03:30.598Z,101572.36
2018-09-14T12:05:58.770Z,101559.66
2018-09-14T12:08:26.913Z,101562.97
2018-09-14T12:10:55.073Z,101558.51
2018-09-14T12:13:23.255Z,101551.41
2018-09-14T12:15:51.417Z,101553.96
2018-09-14T12:18:19.602Z,101555.08
2018-09-14T12:20:47.752Z,101549.86
2018-09-14T12:23:15.897Z,101546.84
2018-09-14T12:25:44.024Z,101539.13
2018-09-14T12:28:12.198Z,101534.19
2018-09-14T12:30:40.417Z,101530.80
2018-09-14T12:33:08.963Z,101528.98
2018-09-14T12:35:37.240Z,101530.47
2018-09-14T12:38:05.445Z,101524.61
2018-09-14T12:40:33.541Z,101525.09
2018-09-14T12:43:01.969Z,101514.16
2018-09-14T12:45:30.458Z,101514.84
2018-09-14T12:47:58.556Z,101510.69
2018-09-14T12:50:26.724Z,101508.74
2018-09-14T12:52:54.887Z,101514.17
2018-09-14T12:55:23.058Z,101507.59
2018-09-14T12:57:51.174Z,101503.50
2018-09-14T13:00:19.314Z,101512.66
2018-09-14T13:02:47.420Z,101516.23
2018-09-14T13:05:15.580Z,101508.67
2018-09-14T13:07:44.348Z,101495.58
2018-09-14T13:10:12.520Z,101506.62
2018-09-14T13:12:40.644Z,101500.48
2018-09-14T13:15:08.786Z,101498.92
2018-09-14T13:17:36.935Z,101496.67
2018-09-14T13:20:05.083Z,101499.22
2018-09-14T13:22:33.250Z,101490.34
2018-09-14T13:25:01.415Z,101490.89
2018-09-14T13:27:29.573Z,101486.41
2018-09-14T13:29:57.692Z,101485.45
2018-09-14T13:32:25.868Z,101485.48
2018-09-14T13:34:54.058Z,101480.19
2018-09-14T13:37:22.218Z,101480.19
2018-09-14T13:39:50.335Z,101477.05
2018-09-14T13:42:18.601Z,101475.44
2018-09-14T13:44:46.777Z,101473.03
2018-09-14T13:47:14.907Z,101470.53
2018-09-14T13:49:43.080Z,101477.78
2018-09-14T13:52:11.226Z,101473.17
2018-09-14T13:54:39.369Z,101472.11
2018-09-14T13:57:07.547Z,101470.76
2018-09-14T13:59:35.691Z,101469.09
2018-09-14T14:02:03.834Z,101462.05
2018-09-14T14:04:31.955Z,101460.28
2018-09-14T14:07:00.087Z,101459.27
2018-09-14T14:09:28.229Z,101456.80
2018-09-14T14:11:56.402Z,101456.20
2018-09-14T14:14:24.573Z,101453.35
2018-09-14T14:16:52.759Z,101451.53
2018-09-14T14:19:20.833Z,101458.55
2018-09-14T14:21:49.232Z,101449.73
2018-09-14T14:24:17.454Z,101452.14
2018-09-14T14:26:45.587Z,101458.30
2018-09-14T14:29:13.703Z,101452.50
2018-09-14T14:31:41.847Z,101451.80
2018-09-14T14:34:10.124Z,101452.81
2018-09-14T14:36:38.253Z,101452.33
2018-09-14T14:39:07.754Z,101459.77
2018-09-14T14:41:35.916Z,101460.75
2018-09-14T14:44:04.024Z,101451.25
2018-09-14T14:46:32.181Z,101445.23
2018-09-14T14:49:00.288Z,101440.77
2018-09-14T14:51:28.443Z,101440.03
2018-09-14T14:53:56.629Z,101443.55
2018-09-14T14:56:24.801Z,101438.95
2018-09-14T14:58:52.936Z,101436.30
2018-09-14T15:01:21.152Z,101431.61
2018-09-14T15:03:49.308Z,101432.47
2018-09-14T15:06:17.484Z,101424.62
2018-09-14T15:08:45.625Z,101425.55
2018-09-14T15:11:13.738Z,101417.69
2018-09-14T15:13:42.059Z,101413.98
2018-09-14T15:16:10.312Z,101411.24
2018-09-14T15:18:38.440Z,101414.97
2018-09-14T15:21:06.688Z,101411.00
2018-09-14T15:23:34.841Z,101409.52
2018-09-14T15:26:03.005Z,101412.90
2018-09-14T15:28:31.288Z,101413.50
2018-09-14T15:30:59.405Z,101412.23
2018-09-14T15:33:27.954Z,101401.84
2018-09-14T15:35:56.646Z,101402.34
2018-09-14T15:38:24.800Z,101397.53
2018-09-14T15:40:52.970Z,101404.36
2018-09-14T15:43:21.069Z,101398.86
2018-09-14T15:45:49.413Z,101393.89
2018-09-14T15:48:17.566Z,101399.20
2018-09-14T15:50:45.824Z,101396.44
2018-09-14T15:53:14.032Z,101404.39
2018-09-14T15:55:42.351Z,101391.48
2018-09-14T15:58:10.654Z,101399.33
2018-09-14T16:00:38.877Z,101394.03
2018-09-14T16:03:07.068Z,101394.02
2018-09-14T16:05:35.225Z,101397.88
2018-09-14T16:08:04.212Z,101405.48
2018-09-14T16:10:32.352Z,101397.88
2018-09-14T16:13:00.846Z,101397.16
2018-09-14T16:15:29.117Z,101396.90
2018-09-14T16:17:57.267Z,101391.33
2018-09-14T16:20:25.582Z,101390.95
2018-09-14T16:22:53.765Z,101393.26
2018-09-14T16:25:22.012Z,101393.13
2018-09-14T16:27:50.381Z,101387.69
2018-09-14T16:30:18.554Z,101393.33
2018-09-14T16:32:46.711Z,101394.91
2018-09-14T16:35:14.915Z,101386.16
2018-09-14T16:37:43.096Z,101388.24
2018-09-14T16:40:11.277Z,101385.31
2018-09-14T16:42:39.424Z,101381.55
2018-09-14T16:45:07.586Z,101378.17
2018-09-14T16:47:35.934Z,101387.40
2018-09-14T16:50:04.044Z,101385.82
2018-09-14T16:52:32.198Z,101391.95
2018-09-14T16:55:00.528Z,101390.05
2018-09-14T16:57:28.669Z,101387.83
2018-09-14T16:59:56.788Z,101391.72
2018-09-14T17:02:24.904Z,101388.17
2018-09-14T17:04:53.041Z,101386.37
2018-09-14T17:07:21.192Z,101388.17
2018-09-14T17:09:49.391Z,101388.50
2018-09-14T17:12:17.552Z,101383.95
2018-09-14T17:14:45.685Z,101379.61
2018-09-14T17:17:13.854Z,101385.91
2018-09-14T17:19:41.994Z,101384.84
2018-09-14T17:22:10.185Z,101380.94
2018-09-14T17:24:38.360Z,101384.09
2018-09-14T17:27:06.550Z,101377.75
2018-09-14T17:29:34.710Z,101378.91
2018-09-14T17:32:02.935Z,101382.08
2018-09-14T17:34:31.068Z,101386.91
2018-09-14T17:36:59.221Z,101382.55
2018-09-14T17:39:27.372Z,101381.94
2018-09-14T17:41:55.549Z,101387.58
2018-09-14T17:44:23.784Z,101389.08
2018-09-14T17:46:51.902Z,101384.10
2018-09-14T17:49:20.010Z,101393.44
2018-09-14T17:51:48.211Z,101385.30
2018-09-14T17:54:16.307Z,101394.56
2018-09-14T17:56:44.453Z,101394.66
2018-09-14T17:59:12.617Z,101390.25
2018-09-14T18:01:40.801Z,101393.59
2018-09-14T18:04:08.950Z,101392.09
2018-09-14T18:06:37.124Z,101397.45
2018-09-14T18:09:08.343Z,101392.98
2018-09-14T18:11:36.461Z,101393.91
2018-09-14T18:14:04.604Z,101401.65
2018-09-14T18:16:32.792Z,101401.09
2018-09-14T18:19:00.853Z,101395.81
2018-09-14T18:21:29.021Z,101404.20
2018-09-14T18:23:57.140Z,101397.34
2018-09-14T18:26:25.262Z,101393.48
2018-09-14T18:28:53.426Z,101396.48
2018-09-14T18:31:21.572Z,101395.90
2018-09-14T18:33:49.716Z,101397.30
2018-09-14T18:36:17.863Z,101397.43
2018-09-14T18:38:46.008Z,101393.94
2018-09-14T18:41:14.144Z,101388.66
2018-09-14T18:48:37.166Z,101396.86
2018-09-14T18:51:05.404Z,101407.20
2018-09-14T18:53:33.553Z,101402.20
2018-09-14T18:56:01.726Z,101405.98
2018-09-14T18:58:29.896Z,101399.95
2018-09-14T19:00:57.940Z,101401.91
2018-09-14T19:03:26.085Z,101404.55
2018-09-14T19:05:54.210Z,101407.00
2018-09-14T19:08:22.501Z,101396.69
2018-09-14T19:10:50.610Z,101394.98
2018-09-14T19:13:18.794Z,101395.16
2018-09-14T19:15:46.937Z,101394.52
2018-09-14T19:18:15.085Z,101390.46
2018-09-14T19:20:43.246Z,101391.27
2018-09-14T19:23:11.393Z,101400.19
2018-09-14T19:25:39.525Z,101388.64
2018-09-14T19:28:07.667Z,101397.35
2018-09-14T19:30:35.856Z,101392.52
2018-09-14T19:33:03.981Z,101399.60
2018-09-14T19:35:32.144Z,101400.70
2018-09-14T19:38:00.272Z,101396.59
2018-09-14T19:40:28.388Z,101399.01
2018-09-14T19:42:56.505Z,101400.78
2018-09-14T19:45:24.692Z,101391.97
2018-09-14T19:47:52.808Z,101391.58
2018-09-14T19:50:20.938Z,101393.92
2018-09-14T19:52:49.107Z,101395.14
2018-09-14T19:55:17.234Z,101390.06
2018-09-14T19:57:45.365Z,101400.02
2018-09-14T20:00:13.516Z,101396.03
2018-09-14T20:02:41.651Z,101395.19
2018-09-14T20:05:09.789Z,101390.77
2018-09-14T20:07:37.941Z,101389.80
2018-09-14T20:10:06.061Z,101383.78
2018-09-14T20:12:34.220Z,101378.95
2018-09-14T20:15:02.346Z,101374.42
2018-09-14T20:17:30.547Z,101370.39
2018-09-14T20:19:58.648Z,101366.53
2018-09-14T20:22:26.776Z,101365.89
2018-09-14T20:24:54.920Z,101363.92
2018-09-14T20:27:23.046Z,101369.05
2018-09-14T20:29:51.196Z,101362.18
2018-09-14T20:32:19.354Z,101360.41
2018-09-14T20:34:47.556Z,101366.55
2018-09-14T20:37:15.678Z,101361.56
2018-09-14T20:39:43.842Z,101361.86
2018-09-14T20:42:11.964Z,101358.30
2018-09-14T20:44:40.133Z,101351.35
2018-09-14T20:47:08.285Z,101354.06
2018-09-14T20:49:36.413Z,101348.20
2018-09-14T20:52:04.563Z,101343.33
2018-09-14T20:54:32.723Z,101340.45
2018-09-14T20:57:00.862Z,101341.25
2018-09-14T20:59:28.975Z,101339.69
2018-09-14T21:01:57.097Z,101342.78
2018-09-14T21:04:25.316Z,101338.45
2018-09-14T21:06:53.423Z,101338.16
2018-09-14T21:09:21.578Z,101332.98
2018-09-14T21:11:49.681Z,101335.53
2018-09-14T21:14:17.832Z,101336.25
2018-09-14T21:16:45.990Z,101334.27
2018-09-14T21:19:14.116Z,101338.38
2018-09-14T21:21:42.237Z,101337.66
2018-09-14T21:24:10.341Z,101339.11
2018-09-14T21:26:38.512Z,101335.20
2018-09-14T21:29:06.725Z,101335.97
2018-09-14T21:31:34.856Z,101335.06
2018-09-14T21:34:02.984Z,101334.51
2018-09-14T21:36:31.134Z,101331.20
2018-09-14T21:38:59.337Z,101331.41
2018-09-14T21:41:27.465Z,101342.78
2018-09-14T21:43:55.626Z,101337.52
2018-09-14T21:46:23.785Z,101341.93
2018-09-14T21:48:51.906Z,101339.65
2018-09-14T21:51:20.209Z,101343.97
2018-09-14T21:53:48.402Z,101344.27
2018-09-14T21:56:16.533Z,101341.64
2018-09-14T21:58:44.660Z,101345.11
2018-09-14T22:01:14.117Z,101342.11
2018-09-14T22:03:43.452Z,101347.56
2018-09-14T22:06:11.638Z,101344.47
2018-09-14T22:08:39.769Z,101352.83
2018-09-14T22:11:07.884Z,101352.06
2018-09-14T22:13:35.984Z,101352.53
2018-09-14T22:16:04.155Z,101355.34
2018-09-14T22:18:32.298Z,101360.98
2018-09-14T22:21:00.450Z,101365.68
2018-09-14T22:23:28.602Z,101360.07
2018-09-14T22:25:56.773Z,101364.31
2018-09-14T22:28:24.933Z,101360.10
2018-09-14T22:30:53.206Z,101361.68
2018-09-14T22:33:21.412Z,101355.02
2018-09-14T22:35:49.640Z,101347.89
2018-09-14T22:38:17.805Z,101352.94
2018-09-14T22:40:45.953Z,101348.73
2018-09-14T22:43:14.094Z,101351.36
2018-09-14T22:45:42.252Z,101350.13
2018-09-14T22:48:10.380Z,101350.60
2018-09-14T22:50:38.497Z,101350.70
2018-09-14T22:53:06.611Z,101352.23
2018-09-14T22:55:34.725Z,101354.48
2018-09-14T22:58:02.880Z,101351.30
2018-09-14T23:00:36.351Z,101355.97
2018-09-14T23:03:04.545Z,101353.73
2018-09-14T23:05:32.774Z,101358.30
2018-09-14T23:08:00.908Z,101349.81
2018-09-14T23:10:29.022Z,101356.39
2018-09-14T23:12:57.202Z,101352.45
2018-09-14T23:15:25.337Z,101352.06
2018-09-14T23:17:53.455Z,101349.38
2018-09-14T23:20:21.625Z,101344.80
2018-09-14T23:22:49.754Z,101342.52
2018-09-14T23:25:17.933Z,101338.19
2018-09-14T23:27:46.086Z,101340.06
2018-09-14T23:30:14.240Z,101339.63
2018-09-14T23:32:42.385Z,101334.83
2018-09-14T23:35:10.500Z,101331.17
2018-09-14T23:37:38.628Z,101332.37
2018-09-14T23:40:06.760Z,101332.48
2018-09-14T23:42:34.886Z,101332.58
2018-09-14T23:45:03.005Z,101343.09
2018-09-14T23:47:31.136Z,101347.22
2018-09-14T23:49:59.320Z,101346.02
2018-09-14T23:52:27.430Z,101338.10
2018-09-14T23:54:55.546Z,101342.34
2018-09-14T23:57:23.701Z,101351.54
2018-09-14T23:59:51.872Z,101351.45
